Terminal Aerodrome Forecast
Issued by NWS Jackson, KY

Home | Current Version | Previous Version | Text Only | Print | Product List | Glossary On
Versions: 1 2 3 4 5 6 7 8 9 10 11 12 13 14
000
FTUS43 KJKL 301400 AAA
TAFJKL
TAF AMD
KJKL 301419Z 3014/3112 29011G17KT 6SM -SN SCT020 BKN060
      TEMPO 3015/3016 1/2SM SHSN BKN005 OVC015
     FM301600 33010G18KT P6SM BKN022
     FM302000 33007KT P6SM SCT025=

USA.gov is the U.S. government's official web portal to all federal, state and local government web resources and services.